Time;durP1;ratioP1;P1;durP2;ratioP2;P2;SDS_P1;SDS_P2;PMS_P1;PMS_P2;Temp;Humidity;BMP_temperature;BMP_pressure;BME280_temperature;BME280_humidity;BME280_pressure;Samples;Min_cycle;Max_cycle;Signal;HPM_P1;HPM_P2
2022/01/30 00:01:50;;;;;;;32.08;6.03;;;5.80;99.90;;;;;;5056479;28;20025;-89
2022/01/30 00:04:16;;;;;;;28.48;4.45;;;5.80;99.90;;;;;;5055850;28;20024;-90
2022/01/30 00:06:42;;;;;;;42.40;5.20;;;5.80;99.90;;;;;;5056247;28;20033;-87
2022/01/30 00:09:16;;;;;;;29.00;4.00;;;5.80;99.90;;;;;;5058404;28;20040;-90
2022/01/30 00:11:45;;;;;;;41.88;5.40;;;5.80;99.90;;;;;;5059701;28;20033;-92
2022/01/30 00:14:14;;;;;;;25.38;4.25;;;5.80;99.90;;;;;;5056746;28;20060;-95
2022/01/30 00:16:55;;;;;;;24.65;5.30;;;5.80;99.90;;;;;;5057334;28;20040;-90
2022/01/30 00:19:30;;;;;;;45.90;6.40;;;5.70;99.90;;;;;;5055847;28;20025;-94
2022/01/30 00:22:14;;;;;;;36.03;6.28;;;5.80;99.90;;;;;;5056467;28;20024;-89
2022/01/30 00:27:43;;;;;;;34.58;6.70;;;5.80;99.90;;;;;;5064825;28;20029;-89
2022/01/30 00:30:11;;;;;;;30.13;4.43;;;5.80;99.90;;;;;;5037078;28;20022;-92
2022/01/30 00:32:38;;;;;;;34.80;4.65;;;5.80;99.90;;;;;;5054771;28;20025;-93
2022/01/30 00:35:04;;;;;;;45.90;5.93;;;5.80;99.90;;;;;;5055228;28;20045;-92
2022/01/30 00:37:31;;;;;;;24.02;4.18;;;5.80;99.90;;;;;;5055899;28;20031;-90
2022/01/30 00:39:57;;;;;;;28.67;4.55;;;5.80;99.90;;;;;;5065625;28;20016;-93
2022/01/30 00:42:23;;;;;;;38.97;4.90;;;5.80;99.90;;;;;;5070504;28;20104;-90
2022/01/30 00:44:51;;;;;;;26.67;5.10;;;5.80;99.90;;;;;;5055704;28;20481;-92
2022/01/30 00:47:17;;;;;;;18.05;3.70;;;5.80;99.90;;;;;;5055030;28;20029;-90
2022/01/30 00:49:44;;;;;;;25.27;4.00;;;5.80;99.90;;;;;;5056443;28;20112;-91
2022/01/30 00:52:10;;;;;;;43.58;6.10;;;5.80;99.90;;;;;;5056584;28;20029;-93
2022/01/30 00:55:00;;;;;;;22.02;3.85;;;5.80;99.90;;;;;;5054892;28;20036;-89
2022/01/30 00:57:43;;;;;;;20.85;3.63;;;5.80;99.90;;;;;;5040810;28;20049;-93
2022/01/30 01:00:09;;;;;;;31.25;4.43;;;5.80;99.90;;;;;;5055882;28;20091;-93
2022/01/30 01:02:45;;;;;;;27.05;4.20;;;5.80;99.90;;;;;;5055277;28;20036;-91
2022/01/30 01:05:15;;;;;;;28.90;4.28;;;5.80;99.90;;;;;;5055416;28;20037;-94
2022/01/30 01:08:06;;;;;;;16.95;3.17;;;5.90;99.90;;;;;;5054688;28;20120;-89
2022/01/30 01:13:26;;;;;;;21.83;3.95;;;5.90;99.90;;;;;;5095581;28;20111;-92
2022/01/30 01:24:09;;;;;;;24.27;3.60;;;5.70;99.90;;;;;;5079584;28;20123;-88
2022/01/30 01:26:37;;;;;;;25.33;3.90;;;5.80;99.90;;;;;;5075502;28;20028;-92
2022/01/30 01:29:06;;;;;;;21.23;3.00;;;5.80;99.90;;;;;;5074412;28;20025;-90
2022/01/30 01:31:32;;;;;;;22.92;3.83;;;5.80;99.90;;;;;;5075407;28;20078;-96
2022/01/30 01:36:48;;;;;;;31.30;4.30;;;5.80;99.90;;;;;;5075625;28;20039;-90
2022/01/30 01:39:13;;;;;;;20.20;3.83;;;5.90;99.90;;;;;;5075338;28;20029;-90
2022/01/30 01:41:42;;;;;;;17.25;3.50;;;5.90;99.90;;;;;;5073855;28;20024;-89
2022/01/30 01:44:16;;;;;;;20.52;3.58;;;5.90;99.90;;;;;;5073704;28;20034;-89
2022/01/30 01:46:43;;;;;;;26.52;3.90;;;5.80;99.90;;;;;;5075146;28;20031;-90
2022/01/30 01:49:21;;;;;;;24.27;3.95;;;5.80;99.90;;;;;;5075699;28;20532;-89
2022/01/30 01:52:01;;;;;;;25.92;4.82;;;5.80;99.90;;;;;;5075203;28;20025;-96
2022/01/30 01:54:29;;;;;;;25.60;4.28;;;5.80;99.90;;;;;;5075460;28;20040;-93
2022/01/30 01:57:07;;;;;;;16.33;3.45;;;5.80;99.90;;;;;;5073719;28;20020;-90
2022/01/30 01:59:33;;;;;;;18.55;3.70;;;5.80;99.90;;;;;;5075627;28;20050;-86
2022/01/30 02:02:01;;;;;;;13.65;3.50;;;5.80;99.90;;;;;;5073270;28;20021;-88
2022/01/30 02:04:47;;;;;;;19.35;3.53;;;5.80;99.90;;;;;;5074643;28;20518;-92
2022/01/30 02:09:46;;;;;;;13.45;3.47;;;5.90;99.90;;;;;;5094556;28;20503;-90
2022/01/30 02:12:18;;;;;;;37.22;4.13;;;6.00;99.90;;;;;;5092137;28;20028;-89
2022/01/30 02:15:17;;;;;;;18.20;3.63;;;6.00;99.90;;;;;;5092731;28;20024;-88
2022/01/30 02:26:19;;;;;;;20.58;4.28;;;5.90;99.90;;;;;;5054620;28;20036;-87
2022/01/30 02:28:44;;;;;;;31.83;3.75;;;6.10;99.90;;;;;;5054034;28;20032;-92
2022/01/30 02:31:14;;;;;;;28.67;4.88;;;5.90;99.90;;;;;;5053315;28;20017;-90
2022/01/30 02:33:49;;;;;;;21.85;4.43;;;5.90;99.90;;;;;;5054182;28;20106;-87
2022/01/30 02:36:14;;;;;;;16.00;3.90;;;5.80;99.90;;;;;;5076508;28;20020;-88
2022/01/30 02:38:40;;;;;;;18.60;4.18;;;5.80;99.90;;;;;;5093727;28;20656;-91
2022/01/30 02:41:28;;;;;;;20.55;3.67;;;5.70;99.90;;;;;;5094444;28;20460;-94
2022/01/30 02:44:07;;;;;;;35.20;5.45;;;5.80;99.90;;;;;;5081545;28;20048;-92
2022/01/30 02:46:44;;;;;;;27.90;4.40;;;5.70;99.90;;;;;;5072873;28;20366;-89
2022/01/30 02:49:26;;;;;;;50.75;6.93;;;5.70;99.90;;;;;;5072429;28;20036;-90
2022/01/30 02:52:06;;;;;;;37.17;4.47;;;5.60;99.90;;;;;;5090006;28;20030;-91
2022/01/30 02:54:32;;;;;;;33.92;5.10;;;5.60;99.90;;;;;;5093475;28;20028;-88
2022/01/30 02:56:58;;;;;;;37.05;5.03;;;5.60;99.90;;;;;;5093853;28;20077;-88
2022/01/30 02:59:24;;;;;;;25.45;4.65;;;5.60;99.90;;;;;;5092025;28;20504;-89
2022/01/30 03:01:50;;;;;;;32.88;5.38;;;5.70;99.90;;;;;;5078415;28;20028;-90
2022/01/30 03:04:43;;;;;;;30.05;4.57;;;5.60;99.90;;;;;;5074409;28;20590;-96
2022/01/30 03:07:08;;;;;;;21.65;4.15;;;5.60;99.90;;;;;;5072883;28;20042;-89
2022/01/30 03:09:57;;;;;;;26.80;4.38;;;5.60;99.90;;;;;;5073444;28;20031;-93
2022/01/30 03:12:23;;;;;;;18.65;3.25;;;5.60;99.90;;;;;;5073328;28;20110;-86
2022/01/30 03:15:01;;;;;;;21.35;4.18;;;5.60;99.90;;;;;;5072024;28;20472;-89
2022/01/30 03:17:26;;;;;;;30.15;5.65;;;5.60;99.90;;;;;;5053600;28;20142;-91
2022/01/30 03:19:52;;;;;;;35.63;4.97;;;5.60;99.90;;;;;;5069196;28;20067;-90
2022/01/30 03:22:23;;;;;;;32.92;5.00;;;5.70;99.90;;;;;;5074183;28;20020;-88
2022/01/30 03:24:48;;;;;;;21.55;4.40;;;5.70;99.90;;;;;;5072853;28;20066;-93
2022/01/30 03:27:33;;;;;;;23.75;3.88;;;5.70;99.90;;;;;;5071686;28;20028;-86
2022/01/30 03:30:04;;;;;;;27.15;4.13;;;5.60;99.90;;;;;;5072033;28;20035;-88
2022/01/30 03:32:36;;;;;;;25.40;4.85;;;5.60;99.90;;;;;;5073659;28;20108;-95
2022/01/30 03:35:02;;;;;;;29.67;4.85;;;5.60;99.90;;;;;;5083176;28;20399;-93
2022/01/30 03:37:28;;;;;;;20.10;2.78;;;5.60;99.90;;;;;;5092170;28;20020;-88
2022/01/30 03:39:54;;;;;;;22.77;3.85;;;5.60;99.90;;;;;;5083410;28;20111;-88
2022/01/30 03:42:21;;;;;;;28.00;4.70;;;5.70;99.90;;;;;;5073040;28;20473;-92
2022/01/30 03:44:56;;;;;;;25.92;3.60;;;5.70;99.90;;;;;;5073073;28;20396;-91
2022/01/30 03:47:24;;;;;;;;;;;5.70;99.90;;;;;;5073462;28;20029;-89
2022/01/30 03:49:50;;;;;;;26.88;4.07;;;5.70;99.90;;;;;;5071923;28;19911;-87
2022/01/30 03:52:28;;;;;;;28.80;4.25;;;5.70;99.90;;;;;;5073126;28;20108;-94
2022/01/30 03:54:53;;;;;;;18.92;3.22;;;5.70;99.90;;;;;;5071734;28;20108;-85
2022/01/30 03:57:18;;;;;;;17.85;3.42;;;5.70;99.90;;;;;;5071803;28;20520;-89
2022/01/30 03:59:57;;;;;;;25.73;3.92;;;5.70;99.90;;;;;;5078121;28;20028;-90
2022/01/30 04:02:23;;;;;;;35.22;5.03;;;5.70;99.90;;;;;;5073609;28;20476;-89
2022/01/30 04:04:48;;;;;;;24.98;4.18;;;5.70;99.90;;;;;;5072543;28;20028;-87
2022/01/30 04:07:16;;;;;;;35.50;4.35;;;5.70;99.90;;;;;;5072326;28;20031;-88
2022/01/30 04:09:42;;;;;;;28.05;4.88;;;5.70;99.90;;;;;;5072449;28;20029;-86
2022/01/30 04:12:08;;;;;;;30.58;4.65;;;5.70;99.90;;;;;;5091904;28;20043;-89
2022/01/30 04:14:34;;;;;;;30.27;5.85;;;5.70;99.90;;;;;;5091235;28;20055;-86
2022/01/30 04:17:08;;;;;;;24.88;3.67;;;5.70;99.90;;;;;;5079360;28;20056;-87
2022/01/30 04:19:34;;;;;;;38.15;4.78;;;5.70;99.90;;;;;;5072307;28;20024;-87
2022/01/30 04:21:59;;;;;;;26.90;4.50;;;5.70;99.90;;;;;;5071406;28;20393;-89
2022/01/30 04:24:41;;;;;;;31.75;4.30;;;5.60;99.90;;;;;;5091061;28;20024;-86
2022/01/30 04:27:07;;;;;;;30.58;4.32;;;5.70;99.90;;;;;;5051172;28;20481;-87
2022/01/30 04:29:33;;;;;;;18.05;4.10;;;5.70;99.90;;;;;;5067759;28;20082;-90
2022/01/30 04:32:10;;;;;;;18.50;2.92;;;5.80;99.90;;;;;;5054197;28;20033;-87
2022/01/30 04:34:36;;;;;;;22.73;3.08;;;5.80;99.90;;;;;;5071631;28;20553;-89
2022/01/30 04:37:04;;;;;;;38.80;4.97;;;5.80;99.90;;;;;;5072592;28;20032;-93
2022/01/30 04:40:04;;;;;;;17.48;4.10;;;5.80;99.90;;;;;;5074623;28;20059;-89
2022/01/30 04:53:51;;;;;;;;;;;5.80;99.90;;;;;;5075964;28;20507;-87
2022/01/30 04:56:40;;;;;;;36.22;5.38;;;5.80;99.90;;;;;;5053816;28;19956;-89
2022/01/30 05:07:29;;;;;;;25.70;3.72;;;5.90;99.90;;;;;;5075621;28;20028;-91
2022/01/30 05:09:54;;;;;;;26.38;4.05;;;5.90;99.90;;;;;;5074330;28;20432;-87
2022/01/30 05:12:20;;;;;;;25.27;4.07;;;5.80;99.90;;;;;;5075381;28;20052;-88
2022/01/30 05:15:01;;;;;;;30.55;4.97;;;5.80;99.90;;;;;;5074277;28;20016;-89
2022/01/30 05:17:27;;;;;;;31.00;4.50;;;5.80;99.90;;;;;;5074003;28;20029;-88
2022/01/30 05:20:07;;;;;;;28.55;4.93;;;5.70;99.90;;;;;;5075122;28;20095;-84
2022/01/30 05:22:33;;;;;;;34.13;4.80;;;5.70;99.90;;;;;;5074898;28;20032;-89
2022/01/30 05:25:05;;;;;;;34.33;5.78;;;5.60;99.90;;;;;;5081518;28;20024;-87
2022/01/30 05:27:31;;;;;;;31.98;4.40;;;5.60;99.90;;;;;;5079408;28;20025;-89
2022/01/30 05:29:56;;;;;;;54.83;6.55;;;5.50;99.90;;;;;;5073891;28;20389;-91
2022/01/30 05:32:42;;;;;;;30.98;5.10;;;5.50;99.90;;;;;;5073822;28;20021;-87
2022/01/30 05:35:08;;;;;;;31.88;4.93;;;5.40;99.90;;;;;;5074053;28;20097;-89
2022/01/30 05:37:37;;;;;;;18.98;3.45;;;5.40;99.90;;;;;;5073407;28;20027;-88
2022/01/30 05:40:05;;;;;;;34.50;5.15;;;5.40;99.90;;;;;;5073351;28;20048;-87
2022/01/30 05:42:31;;;;;;;39.33;5.75;;;5.50;99.90;;;;;;5074681;28;20043;-86
2022/01/30 05:45:12;;;;;;;31.13;4.05;;;5.50;99.90;;;;;;5074771;28;20016;-87
2022/01/30 05:47:48;;;;;;;32.70;4.85;;;5.40;99.90;;;;;;5074601;28;20021;-89
2022/01/30 05:50:26;;;;;;;34.85;5.38;;;5.50;99.90;;;;;;5073698;28;20112;-89
2022/01/30 05:52:53;;;;;;;28.90;5.80;;;5.40;99.90;;;;;;5073970;28;20062;-88
2022/01/30 05:55:19;;;;;;;50.65;5.97;;;5.40;99.90;;;;;;5074821;28;20025;-85
2022/01/30 05:57:44;;;;;;;42.25;5.78;;;5.40;99.90;;;;;;5073895;28;20186;-89
2022/01/30 06:00:16;;;;;;;52.80;6.35;;;5.40;99.90;;;;;;5074563;28;20363;-88
2022/01/30 06:02:43;;;;;;;41.72;6.28;;;5.30;99.90;;;;;;5073518;28;20027;-86
2022/01/30 06:05:49;;;;;;;46.83;6.13;;;5.40;99.90;;;;;;5074349;28;20099;-87
2022/01/30 06:08:38;;;;;;;27.92;4.72;;;5.20;99.90;;;;;;5074113;28;20044;-89
2022/01/30 06:11:12;;;;;;;32.60;5.20;;;5.20;99.90;;;;;;5073897;28;20029;-89
2022/01/30 06:13:38;;;;;;;35.83;6.95;;;5.20;99.90;;;;;;5072977;28;20422;-91
2022/01/30 06:16:06;;;;;;;48.65;6.30;;;5.10;99.90;;;;;;5072697;28;20067;-90
2022/01/30 06:18:32;;;;;;;27.73;5.15;;;5.10;99.90;;;;;;5072671;28;20024;-86
2022/01/30 06:21:02;;;;;;;33.67;5.82;;;5.10;99.90;;;;;;5074208;28;20027;-87
2022/01/30 06:23:27;;;;;;;42.40;7.47;;;5.10;99.90;;;;;;5072385;28;20081;-90
2022/01/30 06:25:53;;;;;;;63.65;8.02;;;5.00;99.90;;;;;;5074097;28;20535;-89
2022/01/30 06:28:19;;;;;;;42.80;7.30;;;5.00;99.90;;;;;;5073745;28;20032;-91
2022/01/30 06:30:59;;;;;;;39.28;6.68;;;5.00;99.90;;;;;;5072219;28;20115;-92
2022/01/30 06:33:25;;;;;;;50.40;7.68;;;5.00;99.90;;;;;;5073281;28;20439;-90
2022/01/30 06:35:50;;;;;;;40.97;6.15;;;5.00;99.90;;;;;;5072213;28;20035;-89
2022/01/30 06:38:53;;;;;;;44.50;6.40;;;5.00;99.90;;;;;;5072081;28;20107;-91
2022/01/30 06:41:19;;;;;;;42.90;7.32;;;5.10;99.90;;;;;;5072485;28;20016;-87
2022/01/30 06:43:45;;;;;;;64.03;8.13;;;5.00;99.90;;;;;;5073990;28;20035;-89
2022/01/30 06:46:43;;;;;;;51.00;7.60;;;5.10;99.90;;;;;;5073699;28;20029;-91
2022/01/30 06:49:09;;;;;;;48.58;8.18;;;5.10;99.90;;;;;;5073703;28;20020;-88
2022/01/30 06:51:37;;;;;;;47.90;7.68;;;5.10;99.90;;;;;;5071617;28;20035;-88
2022/01/30 06:54:04;;;;;;;59.47;7.78;;;5.10;99.90;;;;;;5072167;28;20503;-87
2022/01/30 06:56:30;;;;;;;65.35;8.30;;;5.00;99.90;;;;;;5073393;28;20066;-86
2022/01/30 06:58:56;;;;;;;32.55;5.95;;;5.00;99.90;;;;;;5072110;28;20045;-87
2022/01/30 07:01:23;;;;;;;43.92;8.10;;;4.90;99.90;;;;;;5071491;28;20024;-88
2022/01/30 07:03:49;;;;;;;46.83;6.97;;;5.00;99.90;;;;;;5073391;28;20021;-89
2022/01/30 07:06:17;;;;;;;46.47;7.80;;;4.90;99.90;;;;;;5071405;28;20035;-89
2022/01/30 07:08:42;;;;;;;49.63;8.80;;;4.80;99.90;;;;;;5071528;28;20035;-85
2022/01/30 07:11:11;;;;;;;50.53;7.43;;;4.90;99.90;;;;;;5073241;28;20384;-89
2022/01/30 07:13:36;;;;;;;44.75;7.07;;;4.80;99.90;;;;;;5071663;28;20028;-87
2022/01/30 07:16:02;;;;;;;51.97;7.80;;;4.80;99.90;;;;;;5071735;28;20089;-87
2022/01/30 07:18:40;;;;;;;39.28;9.23;;;4.80;99.90;;;;;;5072934;28;20036;-86
2022/01/30 07:21:07;;;;;;;52.03;8.20;;;4.80;99.90;;;;;;5071446;28;20052;-88
2022/01/30 07:23:33;;;;;;;57.58;8.60;;;4.90;99.90;;;;;;5072620;28;20028;-88
2022/01/30 07:26:05;;;;;;;38.47;6.85;;;4.80;99.90;;;;;;5072753;28;20029;-87
2022/01/30 07:28:31;;;;;;;42.35;7.40;;;4.70;99.90;;;;;;5072543;28;20099;-87
2022/01/30 07:30:57;;;;;;;46.92;7.38;;;4.70;99.90;;;;;;5071369;28;20107;-90
2022/01/30 07:33:23;;;;;;;53.05;7.50;;;4.80;99.90;;;;;;5070908;28;20032;-86
2022/01/30 07:36:03;;;;;;;49.28;9.57;;;4.70;99.90;;;;;;5072375;28;20094;-86
2022/01/30 07:38:28;;;;;;;49.92;8.85;;;4.80;99.90;;;;;;5078483;28;20472;-88
2022/01/30 07:41:18;;;;;;;49.25;8.48;;;4.70;99.90;;;;;;5072374;28;20021;-90
2022/01/30 07:43:44;;;;;;;58.13;8.00;;;4.80;99.90;;;;;;5072173;28;20158;-86
2022/01/30 07:46:43;;;;;;;43.20;8.63;;;4.70;99.90;;;;;;5070933;28;20116;-87
2022/01/30 07:49:09;;;;;;;61.50;9.63;;;4.80;99.90;;;;;;5071262;28;20020;-87
2022/01/30 07:51:47;;;;;;;54.55;7.25;;;4.80;99.90;;;;;;5071803;28;20050;-89
2022/01/30 07:54:13;;;;;;;52.45;6.65;;;4.80;99.90;;;;;;5070637;28;20032;-87
2022/01/30 07:56:39;;;;;;;50.45;6.53;;;4.80;99.90;;;;;;5078483;28;20028;-85
2022/01/30 07:59:05;;;;;;;39.80;7.75;;;4.80;99.90;;;;;;5086419;28;20052;-87
2022/01/30 08:01:30;;;;;;;46.33;8.02;;;4.80;99.90;;;;;;5071493;28;20021;-86
2022/01/30 08:03:58;;;;;;;53.50;8.20;;;4.80;99.90;;;;;;5072129;28;20052;-88
2022/01/30 08:06:24;;;;;;;36.20;6.90;;;4.80;99.90;;;;;;5076991;28;20028;-86
2022/01/30 08:09:02;;;;;;;48.15;7.50;;;4.80;99.90;;;;;;5087157;28;20555;-86
2022/01/30 08:11:28;;;;;;;47.42;7.30;;;4.90;99.90;;;;;;5082528;28;20032;-85
2022/01/30 08:13:59;;;;;;;29.35;5.30;;;4.80;99.90;;;;;;5086263;28;20027;-86
2022/01/30 08:16:26;;;;;;;45.28;8.07;;;4.90;99.90;;;;;;5074782;28;20020;-89
2022/01/30 08:18:53;;;;;;;47.15;7.50;;;4.90;99.90;;;;;;5075816;28;20028;-86
2022/01/30 08:21:19;;;;;;;57.88;9.13;;;4.90;99.90;;;;;;5075645;28;20104;-83
2022/01/30 08:23:45;;;;;;;47.28;7.22;;;4.90;99.90;;;;;;5089025;28;20106;-86
2022/01/30 08:26:10;;;;;;;60.17;8.85;;;4.80;99.90;;;;;;5094928;28;20062;-86
2022/01/30 08:28:41;;;;;;;42.60;8.48;;;4.90;99.90;;;;;;5077949;28;20074;-90
2022/01/30 08:31:06;;;;;;;38.65;6.90;;;4.80;99.90;;;;;;5080120;28;20090;-90
2022/01/30 08:33:39;;;;;;;40.35;8.32;;;4.90;99.90;;;;;;5079175;28;20115;-85
2022/01/30 08:36:05;;;;;;;48.88;8.13;;;4.80;99.90;;;;;;5075449;28;20027;-87
2022/01/30 08:38:38;;;;;;;51.03;9.38;;;4.90;99.90;;;;;;5075286;28;20031;-87
2022/01/30 08:41:04;;;;;;;48.05;6.85;;;4.90;99.90;;;;;;5075365;28;20024;-87
2022/01/30 08:43:42;;;;;;;52.50;8.18;;;4.90;99.90;;;;;;5094845;28;20111;-85
2022/01/30 08:46:08;;;;;;;32.45;6.07;;;4.90;99.90;;;;;;5082126;28;20012;-90
2022/01/30 08:48:35;;;;;;;46.55;8.88;;;5.00;99.90;;;;;;5075352;28;20031;-86
2022/01/30 08:51:01;;;;;;;43.63;7.97;;;5.00;99.90;;;;;;5075386;28;20103;-85
2022/01/30 08:53:31;;;;;;;57.92;9.23;;;5.00;99.90;;;;;;5074828;28;20067;-87
2022/01/30 08:55:56;;;;;;;38.42;7.47;;;5.10;99.90;;;;;;5074123;28;20055;-85
2022/01/30 08:58:22;;;;;;;40.25;8.27;;;5.10;99.90;;;;;;5067894;28;20087;-86
2022/01/30 09:00:47;;;;;;;48.65;8.15;;;5.10;99.90;;;;;;5076346;28;20400;-85
2022/01/30 09:03:29;;;;;;;58.08;9.13;;;5.10;99.90;;;;;;5086320;28;20107;-87
2022/01/30 09:05:55;;;;;;;41.03;6.88;;;5.20;99.90;;;;;;5078596;28;20031;-85
2022/01/30 09:08:27;;;;;;;41.50;7.93;;;5.20;99.90;;;;;;5073625;28;20033;-86
2022/01/30 09:10:52;;;;;;;61.85;8.93;;;5.20;99.90;;;;;;5075056;28;20103;-85
2022/01/30 09:13:30;;;;;;;58.80;9.10;;;5.20;99.90;;;;;;5083284;28;20103;-88
2022/01/30 09:15:57;;;;;;;56.47;8.35;;;5.20;99.90;;;;;;5094741;28;20032;-86
2022/01/30 09:18:26;;;;;;;50.47;7.90;;;5.20;99.90;;;;;;5081282;28;20066;-86
2022/01/30 09:20:53;;;;;;;57.85;7.25;;;5.20;99.90;;;;;;5089306;28;20040;-87
2022/01/30 09:23:25;;;;;;;53.67;7.43;;;5.20;99.90;;;;;;5074240;28;20029;-88
2022/01/30 09:25:50;;;;;;;44.17;6.78;;;5.20;99.90;;;;;;5074928;28;20043;-84
2022/01/30 09:28:16;;;;;;;46.30;8.90;;;5.30;99.90;;;;;;5074453;28;20469;-84
2022/01/30 09:30:42;;;;;;;39.95;6.90;;;5.30;99.90;;;;;;5083337;28;20089;-87
2022/01/30 09:33:17;;;;;;;63.85;9.80;;;5.40;99.90;;;;;;5078531;28;20397;-86
2022/01/30 09:35:42;;;;;;;50.67;7.88;;;5.30;99.90;;;;;;5074592;28;20108;-85
2022/01/30 09:38:26;;;;;;;27.45;5.43;;;5.30;99.90;;;;;;5076731;28;21739;-85
2022/01/30 09:40:54;;;;;;;54.88;7.97;;;5.30;99.90;;;;;;5094645;28;20434;-86
2022/01/30 09:43:22;;;;;;;48.78;8.32;;;5.40;99.90;;;;;;5094430;28;20016;-86
2022/01/30 09:45:48;;;;;;;54.47;8.95;;;5.40;99.90;;;;;;5079798;28;20029;-87
2022/01/30 09:48:22;;;;;;;45.05;7.70;;;5.40;99.90;;;;;;5072948;28;20039;-83
2022/01/30 09:50:49;;;;;;;45.63;8.30;;;5.40;99.90;;;;;;5073159;28;20453;-84
2022/01/30 09:53:18;;;;;;;53.63;8.60;;;5.50;99.90;;;;;;5071390;28;20028;-87
2022/01/30 09:55:44;;;;;;;53.92;7.95;;;5.30;99.90;;;;;;5072886;28;20125;-87
2022/01/30 09:58:09;;;;;;;45.60;6.40;;;5.30;99.90;;;;;;5076700;28;20099;-85
2022/01/30 10:00:36;;;;;;;63.60;9.30;;;5.40;99.90;;;;;;5092609;28;20043;-86
2022/01/30 10:03:11;;;;;;;72.38;9.95;;;5.30;99.90;;;;;;5073975;28;20392;-88
2022/01/30 10:05:38;;;;;;;54.20;6.90;;;5.40;99.90;;;;;;5070553;28;20413;-84
2022/01/30 10:08:05;;;;;;;64.07;9.07;;;5.40;99.90;;;;;;5073437;28;20073;-87
2022/01/30 10:10:31;;;;;;;55.20;8.93;;;5.40;99.90;;;;;;5072668;28;20063;-86
2022/01/30 10:13:11;;;;;;;58.70;8.88;;;5.30;99.90;;;;;;5073948;28;20067;-85
2022/01/30 10:15:57;;;;;;;51.33;8.52;;;5.30;99.90;;;;;;5089251;28;20456;-87
2022/01/30 10:18:35;;;;;;;45.15;6.78;;;5.30;99.90;;;;;;5092680;28;20511;-85
2022/01/30 10:21:01;;;;;;;48.92;7.47;;;5.40;99.90;;;;;;5070546;28;20052;-86
2022/01/30 10:23:37;;;;;;;48.65;8.18;;;5.40;99.90;;;;;;5073089;28;20091;-86
2022/01/30 10:26:07;;;;;;;;;;;5.40;99.90;;;;;;5072741;28;20032;-85
2022/01/30 10:28:34;;;;;;;44.80;6.57;;;5.40;99.90;;;;;;5072364;28;19927;-86
2022/01/30 10:31:10;;;;;;;52.15;8.23;;;5.30;99.90;;;;;;5072177;28;20024;-85
2022/01/30 10:33:45;;;;;;;48.83;9.10;;;5.40;99.90;;;;;;5072263;28;20044;-91
2022/01/30 10:36:13;;;;;;;48.25;8.30;;;5.40;99.90;;;;;;5072617;28;20034;-84
2022/01/30 10:39:12;;;;;;;57.03;8.38;;;5.40;99.90;;;;;;5072916;28;20017;-83
2022/01/30 10:41:46;;;;;;;60.55;8.68;;;5.40;99.90;;;;;;5073400;28;20032;-83
2022/01/30 10:44:11;;;;;;;48.65;8.25;;;5.40;99.90;;;;;;5073057;28;20031;-84
2022/01/30 10:46:43;;;;;;;54.45;8.75;;;5.40;99.90;;;;;;5072988;28;20111;-83
2022/01/30 10:49:11;;;;;;;37.05;8.05;;;5.40;99.90;;;;;;5073241;28;20032;-84
2022/01/30 10:51:37;;;;;;;53.85;9.23;;;5.30;99.90;;;;;;5072951;28;20017;-84
2022/01/30 10:54:11;;;;;;;48.15;8.55;;;5.40;99.90;;;;;;5072006;28;20561;-83
2022/01/30 10:56:39;;;;;;;57.83;9.80;;;5.40;99.90;;;;;;5071531;28;20070;-84
2022/01/30 10:59:15;;;;;;;55.63;9.00;;;5.50;99.90;;;;;;5072229;28;20044;-84
2022/01/30 11:01:44;;;;;;;;;;;5.40;99.90;;;;;;5073253;28;20021;-83
2022/01/30 11:04:30;;;;;;;54.85;9.27;;;5.40;99.90;;;;;;5071901;28;19912;-82
2022/01/30 11:07:00;;;;;;;53.78;8.10;;;5.40;99.90;;;;;;5072441;28;20369;-83
2022/01/30 11:09:32;;;;;;;46.55;7.78;;;5.40;99.90;;;;;;5072563;28;20040;-83
2022/01/30 11:12:02;;;;;;;62.70;9.80;;;5.40;99.90;;;;;;5071225;28;20063;-83
2022/01/30 11:14:40;;;;;;;46.42;7.80;;;5.40;99.90;;;;;;5072715;28;20066;-82
2022/01/30 11:17:09;;;;;;;55.65;8.75;;;5.40;99.90;;;;;;5072447;28;20115;-83
2022/01/30 11:19:47;;;;;;;84.13;11.02;;;5.40;99.90;;;;;;5070964;28;20055;-84
2022/01/30 11:22:30;;;;;;;53.95;8.98;;;5.40;99.90;;;;;;5071482;28;20020;-83
2022/01/30 11:25:01;;;;;;;68.43;9.45;;;5.40;99.90;;;;;;5071143;28;20411;-82
2022/01/30 11:27:28;;;;;;;54.95;9.63;;;5.50;99.90;;;;;;5068738;28;20031;-81
2022/01/30 11:29:54;;;;;;;74.28;10.80;;;5.40;99.90;;;;;;5072286;28;20029;-82
2022/01/30 11:32:22;;;;;;;63.95;9.60;;;5.40;99.90;;;;;;5072568;28;20648;-82
2022/01/30 11:34:48;;;;;;;64.13;10.07;;;5.30;99.90;;;;;;5072742;28;20104;-83
2022/01/30 11:37:22;;;;;;;66.82;10.02;;;5.40;99.90;;;;;;5072048;28;20111;-82
2022/01/30 11:39:51;;;;;;;69.03;10.18;;;5.50;99.90;;;;;;5072677;28;20051;-83
2022/01/30 11:42:20;;;;;;;70.53;10.77;;;5.40;99.90;;;;;;5072262;28;20028;-82
2022/01/30 11:44:48;;;;;;;60.67;10.75;;;5.40;99.90;;;;;;5052314;28;20021;-82
2022/01/30 11:47:16;;;;;;;71.70;9.70;;;5.40;99.90;;;;;;5057418;28;20081;-83
2022/01/30 11:49:52;;;;;;;76.75;10.68;;;5.50;99.90;;;;;;5075400;28;20069;-82
2022/01/30 11:52:20;;;;;;;57.67;8.70;;;5.40;99.90;;;;;;5076108;28;20385;-84
2022/01/30 11:54:47;;;;;;;73.35;10.77;;;5.40;99.90;;;;;;5075337;28;20384;-85
2022/01/30 11:57:29;;;;;;;62.30;9.57;;;5.40;99.90;;;;;;5076664;28;20021;-82
2022/01/30 12:00:05;;;;;;;76.68;11.07;;;5.50;99.90;;;;;;5075972;28;20041;-84
2022/01/30 12:02:34;;;;;;;;;;;5.50;99.90;;;;;;5076740;28;20442;-85
2022/01/30 12:05:04;;;;;;;80.68;12.57;;;5.50;99.90;;;;;;5074796;28;19904;-82
2022/01/30 12:07:39;;;;;;;60.55;9.32;;;5.50;99.90;;;;;;5076004;28;20153;-83
2022/01/30 12:10:25;;;;;;;63.03;10.07;;;5.50;99.90;;;;;;5075990;28;20468;-83
2022/01/30 12:12:56;;;;;;;54.40;11.82;;;5.50;99.90;;;;;;5055444;28;20134;-83
2022/01/30 12:15:39;;;;;;;60.75;11.43;;;5.50;99.90;;;;;;5074571;28;20031;-83
2022/01/30 12:18:07;;;;;;;83.85;11.98;;;5.50;99.90;;;;;;5076038;28;20097;-83
2022/01/30 12:20:59;;;;;;;61.55;9.27;;;5.50;99.90;;;;;;5074642;28;20056;-84
2022/01/30 12:23:36;;;;;;;62.08;10.65;;;5.50;99.90;;;;;;5075735;28;20021;-83
2022/01/30 12:26:08;;;;;;;70.10;10.68;;;5.50;99.90;;;;;;5075593;28;20115;-83
2022/01/30 12:28:43;;;;;;;77.20;11.43;;;5.50;99.90;;;;;;5075438;28;20024;-82
2022/01/30 12:31:34;;;;;;;78.35;10.73;;;5.50;99.90;;;;;;5071670;28;20075;-84
2022/01/30 12:34:10;;;;;;;60.42;8.70;;;5.50;99.90;;;;;;5071887;28;20381;-83
2022/01/30 12:37:03;;;;;;;70.22;10.32;;;5.50;99.90;;;;;;5073815;28;20135;-82
2022/01/30 12:39:45;;;;;;;73.78;10.93;;;5.50;99.90;;;;;;5072761;28;20028;-83
2022/01/30 12:42:15;;;;;;;50.53;9.77;;;5.50;99.90;;;;;;5075449;28;20027;-82
2022/01/30 12:44:41;;;;;;;55.85;10.57;;;5.50;99.90;;;;;;5075611;28;20608;-83
2022/01/30 12:47:14;;;;;;;76.22;13.23;;;5.50;99.90;;;;;;5075476;28;20529;-83
2022/01/30 12:49:44;;;;;;;69.03;11.02;;;5.40;99.90;;;;;;5074470;28;20480;-83
2022/01/30 12:52:20;;;;;;;80.13;13.23;;;5.40;99.90;;;;;;5074849;28;20052;-83
2022/01/30 12:54:49;;;;;;;86.75;10.68;;;5.40;99.90;;;;;;5075532;28;20031;-83
2022/01/30 12:57:22;;;;;;;72.68;10.52;;;5.50;99.90;;;;;;5074850;28;20362;-82
2022/01/30 12:59:58;;;;;;;68.78;10.60;;;5.50;99.90;;;;;;5073986;28;20044;-84
2022/01/30 13:02:26;;;;;;;67.53;10.98;;;5.40;99.90;;;;;;5075339;28;20099;-83
2022/01/30 13:05:09;;;;;;;71.90;10.38;;;5.40;99.90;;;;;;5075206;28;20506;-84
2022/01/30 13:07:35;;;;;;;67.90;10.45;;;5.40;99.90;;;;;;5074741;28;20047;-82
2022/01/30 13:10:08;;;;;;;71.40;11.82;;;5.40;99.90;;;;;;5075332;28;20025;-83
2022/01/30 13:12:34;;;;;;;66.50;12.73;;;5.40;99.90;;;;;;5073241;28;20024;-84
2022/01/30 13:15:10;;;;;;;70.18;10.20;;;5.40;99.90;;;;;;5073846;28;20058;-82
2022/01/30 13:17:36;;;;;;;84.95;11.23;;;5.40;99.90;;;;;;5074734;28;20354;-82
2022/01/30 13:20:05;;;;;;;53.42;9.77;;;5.40;99.90;;;;;;5074082;28;20161;-84
2022/01/30 13:22:37;;;;;;;66.95;9.48;;;5.40;99.90;;;;;;5073004;28;20024;-84
2022/01/30 13:25:11;;;;;;;76.55;11.57;;;5.40;99.90;;;;;;5074956;28;20020;-83
2022/01/30 13:27:37;;;;;;;75.07;11.32;;;5.40;99.90;;;;;;5074857;28;20151;-84
2022/01/30 13:30:04;;;;;;;77.82;12.52;;;5.40;99.90;;;;;;5074959;28;20025;-83
2022/01/30 13:32:30;;;;;;;77.55;10.98;;;5.40;99.90;;;;;;5073293;28;20028;-82
2022/01/30 13:35:16;;;;;;;71.80;11.80;;;5.40;99.90;;;;;;5074753;28;20021;-84
2022/01/30 13:37:43;;;;;;;61.85;10.45;;;5.40;99.90;;;;;;5073012;28;20379;-82
2022/01/30 13:40:20;;;;;;;75.97;11.90;;;5.40;99.90;;;;;;5074570;28;20053;-85
2022/01/30 13:42:54;;;;;;;79.32;12.48;;;5.30;99.90;;;;;;5054560;28;20025;-83
2022/01/30 13:48:17;;;;;;;62.85;8.93;;;5.30;99.90;;;;;;5074919;28;20109;-84
2022/01/30 13:51:05;;;;;;;74.85;10.75;;;5.30;99.90;;;;;;5074304;28;20372;-84
2022/01/30 13:53:42;;;;;;;70.57;10.82;;;5.30;99.90;;;;;;5074337;28;20052;-87
2022/01/30 13:56:11;;;;;;;55.28;10.20;;;5.30;99.90;;;;;;5072823;28;20020;-85
2022/01/30 13:58:37;;;;;;;49.85;9.15;;;5.40;99.90;;;;;;5071990;28;20036;-84
2022/01/30 14:01:07;;;;;;;61.53;10.98;;;5.40;99.90;;;;;;5073076;28;20020;-85